sensor_id;sensor_type;location;lat;lon;timestamp;pressure;altitude;pressure_sealevel;temperature;humidity
3142;BME280;1581;51.568;6.998;2023-02-03T00:00:08;101713.66;;;9.08;100.00
3142;BME280;1581;51.568;6.998;2023-02-03T00:02:37;101715.03;;;9.20;100.00
3142;BME280;1581;51.568;6.998;2023-02-03T00:05:06;101702.94;;;9.25;100.00
3142;BME280;1581;51.568;6.998;2023-02-03T00:07:35;101717.06;;;9.18;100.00
3142;BME280;1581;51.568;6.998;2023-02-03T00:10:03;101709.34;;;9.32;100.00
3142;BME280;1581;51.568;6.998;2023-02-03T00:12:33;101708.22;;;9.42;100.00
3142;BME280;1581;51.568;6.998;2023-02-03T00:15:01;101704.06;;;9.40;100.00
3142;BME280;1581;51.568;6.998;2023-02-03T00:17:29;101706.69;;;9.32;100.00
3142;BME280;1581;51.568;6.998;2023-02-03T00:19:58;101698.34;;;9.35;100.00
3142;BME280;1581;51.568;6.998;2023-02-03T00:22:26;101692.38;;;9.33;100.00
3142;BME280;1581;51.568;6.998;2023-02-03T00:24:53;101697.06;;;9.39;100.00
3142;BME280;1581;51.568;6.998;2023-02-03T00:27:21;101686.22;;;9.33;100.00
3142;BME280;1581;51.568;6.998;2023-02-03T00:29:48;101698.53;;;9.34;100.00
3142;BME280;1581;51.568;6.998;2023-02-03T00:32:16;101691.22;;;9.36;100.00
3142;BME280;1581;51.568;6.998;2023-02-03T00:34:45;101682.88;;;9.31;100.00
3142;BME280;1581;51.568;6.998;2023-02-03T00:37:14;101693.50;;;9.64;100.00
3142;BME280;1581;51.568;6.998;2023-02-03T00:39:42;101702.38;;;9.39;100.00
3142;BME280;1581;51.568;6.998;2023-02-03T00:42:09;101702.28;;;9.23;100.00
3142;BME280;1581;51.568;6.998;2023-02-03T00:44:37;101698.53;;;9.34;100.00
3142;BME280;1581;51.568;6.998;2023-02-03T00:47:05;101696.09;;;9.48;100.00
3142;BME280;1581;51.568;6.998;2023-02-03T00:49:33;101709.59;;;9.46;100.00
3142;BME280;1581;51.568;6.998;2023-02-03T00:52:00;101703.31;;;9.30;100.00
3142;BME280;1581;51.568;6.998;2023-02-03T00:54:30;101716.03;;;9.44;100.00
3142;BME280;1581;51.568;6.998;2023-02-03T00:56:57;101721.41;;;9.52;100.00
3142;BME280;1581;51.568;6.998;2023-02-03T00:59:25;101723.25;;;9.26;100.00
3142;BME280;1581;51.568;6.998;2023-02-03T01:01:53;101725.94;;;9.59;100.00
3142;BME280;1581;51.568;6.998;2023-02-03T01:04:21;101730.72;;;9.56;100.00
3142;BME280;1581;51.568;6.998;2023-02-03T01:06:48;101735.38;;;9.54;100.00
3142;BME280;1581;51.568;6.998;2023-02-03T01:09:16;101739.63;;;9.39;100.00
3142;BME280;1581;51.568;6.998;2023-02-03T01:11:45;101764.47;;;9.47;100.00
3142;BME280;1581;51.568;6.998;2023-02-03T01:14:13;101759.41;;;9.62;100.00
3142;BME280;1581;51.568;6.998;2023-02-03T01:16:41;101764.78;;;9.44;100.00
3142;BME280;1581;51.568;6.998;2023-02-03T01:19:09;101756.63;;;9.46;100.00
3142;BME280;1581;51.568;6.998;2023-02-03T01:21:38;101761.97;;;9.54;100.00
3142;BME280;1581;51.568;6.998;2023-02-03T01:24:07;101753.19;;;9.53;100.00
3142;BME280;1581;51.568;6.998;2023-02-03T01:26:37;101749.78;;;9.69;100.00
3142;BME280;1581;51.568;6.998;2023-02-03T01:29:17;101749.78;;;9.43;100.00
3142;BME280;1581;51.568;6.998;2023-02-03T01:31:51;101748.88;;;9.60;100.00
3142;BME280;1581;51.568;6.998;2023-02-03T01:34:21;101760.00;;;9.31;100.00
3142;BME280;1581;51.568;6.998;2023-02-03T01:36:52;101760.16;;;9.29;100.00
3142;BME280;1581;51.568;6.998;2023-02-03T01:39:21;101757.41;;;9.38;100.00
3142;BME280;1581;51.568;6.998;2023-02-03T01:41:56;101754.69;;;9.31;100.00
3142;BME280;1581;51.568;6.998;2023-02-03T01:44:44;101740.25;;;9.33;100.00
3142;BME280;1581;51.568;6.998;2023-02-03T01:47:26;101741.38;;;9.56;100.00
3142;BME280;1581;51.568;6.998;2023-02-03T01:50:06;101740.78;;;9.37;100.00
3142;BME280;1581;51.568;6.998;2023-02-03T01:52:36;101744.78;;;9.40;100.00
3142;BME280;1581;51.568;6.998;2023-02-03T01:55:10;101749.31;;;9.48;100.00
3142;BME280;1581;51.568;6.998;2023-02-03T01:57:43;101751.00;;;9.49;100.00
3142;BME280;1581;51.568;6.998;2023-02-03T02:02:45;101747.34;;;9.50;100.00
3142;BME280;1581;51.568;6.998;2023-02-03T02:05:19;101720.16;;;9.38;100.00
3142;BME280;1581;51.568;6.998;2023-02-03T02:07:50;101717.69;;;9.45;100.00
3142;BME280;1581;51.568;6.998;2023-02-03T02:10:18;101719.88;;;9.49;100.00
3142;BME280;1581;51.568;6.998;2023-02-03T02:12:47;101724.13;;;9.35;100.00
3142;BME280;1581;51.568;6.998;2023-02-03T02:15:17;101708.78;;;9.54;100.00
3142;BME280;1581;51.568;6.998;2023-02-03T02:18:05;101686.50;;;9.55;100.00
3142;BME280;1581;51.568;6.998;2023-02-03T02:24:29;101701.22;;;9.41;100.00
3142;BME280;1581;51.568;6.998;2023-02-03T02:27:06;101679.75;;;9.35;100.00
3142;BME280;1581;51.568;6.998;2023-02-03T02:30:41;101694.03;;;9.34;100.00
3142;BME280;1581;51.568;6.998;2023-02-03T02:33:17;101680.91;;;9.33;100.00
3142;BME280;1581;51.568;6.998;2023-02-03T02:35:56;101679.81;;;9.18;100.00
3142;BME280;1581;51.568;6.998;2023-02-03T02:38:44;101672.03;;;9.24;100.00
3142;BME280;1581;51.568;6.998;2023-02-03T02:41:19;101677.50;;;9.48;100.00
3142;BME280;1581;51.568;6.998;2023-02-03T02:43:58;101678.41;;;9.31;100.00
3142;BME280;1581;51.568;6.998;2023-02-03T02:46:32;101668.50;;;9.16;100.00
3142;BME280;1581;51.568;6.998;2023-02-03T02:49:08;101647.06;;;9.17;100.00
3142;BME280;1581;51.568;6.998;2023-02-03T02:51:38;101647.06;;;9.17;100.00
3142;BME280;1581;51.568;6.998;2023-02-03T02:54:14;101656.22;;;9.23;100.00
3142;BME280;1581;51.568;6.998;2023-02-03T02:56:47;101648.97;;;9.33;100.00
3142;BME280;1581;51.568;6.998;2023-02-03T02:59:16;101663.22;;;9.24;100.00
3142;BME280;1581;51.568;6.998;2023-02-03T03:01:44;101681.63;;;9.17;100.00
3142;BME280;1581;51.568;6.998;2023-02-03T03:04:16;101691.69;;;9.31;100.00
3142;BME280;1581;51.568;6.998;2023-02-03T03:06:49;101691.44;;;9.42;100.00
3142;BME280;1581;51.568;6.998;2023-02-03T03:09:22;101703.47;;;9.29;100.00
3142;BME280;1581;51.568;6.998;2023-02-03T03:11:56;101702.16;;;9.33;100.00
3142;BME280;1581;51.568;6.998;2023-02-03T03:14:28;101688.81;;;9.50;100.00
3142;BME280;1581;51.568;6.998;2023-02-03T03:17:05;101679.09;;;9.33;100.00
3142;BME280;1581;51.568;6.998;2023-02-03T03:19:41;101676.44;;;9.33;100.00
3142;BME280;1581;51.568;6.998;2023-02-03T03:22:12;101691.78;;;9.47;100.00
3142;BME280;1581;51.568;6.998;2023-02-03T03:24:46;101683.84;;;9.30;100.00
3142;BME280;1581;51.568;6.998;2023-02-03T03:27:17;101698.22;;;9.37;100.00
3142;BME280;1581;51.568;6.998;2023-02-03T03:29:51;101679.59;;;9.37;100.00
3142;BME280;1581;51.568;6.998;2023-02-03T03:32:20;101685.22;;;9.34;100.00
3142;BME280;1581;51.568;6.998;2023-02-03T03:34:50;101679.44;;;9.38;100.00
3142;BME280;1581;51.568;6.998;2023-02-03T03:37:23;101682.00;;;9.22;100.00
3142;BME280;1581;51.568;6.998;2023-02-03T03:39:55;101671.00;;;9.50;100.00
3142;BME280;1581;51.568;6.998;2023-02-03T03:42:28;101673.53;;;9.52;100.00
3142;BME280;1581;51.568;6.998;2023-02-03T03:45:02;101679.97;;;9.49;100.00
3142;BME280;1581;51.568;6.998;2023-02-03T03:47:35;101685.50;;;9.23;100.00
3142;BME280;1581;51.568;6.998;2023-02-03T03:50:09;101685.97;;;9.51;100.00
3142;BME280;1581;51.568;6.998;2023-02-03T03:52:39;101699.34;;;9.34;100.00
3142;BME280;1581;51.568;6.998;2023-02-03T03:55:10;101692.06;;;9.36;100.00
3142;BME280;1581;51.568;6.998;2023-02-03T03:57:42;101687.16;;;9.24;100.00
3142;BME280;1581;51.568;6.998;2023-02-03T04:00:15;101686.84;;;9.52;100.00
3142;BME280;1581;51.568;6.998;2023-02-03T04:02:49;101693.69;;;9.29;100.00
3142;BME280;1581;51.568;6.998;2023-02-03T04:05:22;101685.84;;;9.53;100.00
3142;BME280;1581;51.568;6.998;2023-02-03T04:07:50;101691.94;;;9.45;100.00
3142;BME280;1581;51.568;6.998;2023-02-03T04:10:24;101675.97;;;9.45;100.00
3142;BME280;1581;51.568;6.998;2023-02-03T04:12:53;101679.66;;;9.52;100.00
3142;BME280;1581;51.568;6.998;2023-02-03T04:15:21;101676.00;;;9.53;100.00
3142;BME280;1581;51.568;6.998;2023-02-03T04:17:49;101677.75;;;9.37;100.00
3142;BME280;1581;51.568;6.998;2023-02-03T04:20:19;101686.75;;;9.44;100.00
3142;BME280;1581;51.568;6.998;2023-02-03T04:22:47;101686.63;;;9.45;100.00
3142;BME280;1581;51.568;6.998;2023-02-03T04:25:15;101681.09;;;9.39;100.00
3142;BME280;1581;51.568;6.998;2023-02-03T04:27:43;101686.94;;;9.42;100.00
3142;BME280;1581;51.568;6.998;2023-02-03T04:30:12;101694.13;;;9.50;100.00
3142;BME280;1581;51.568;6.998;2023-02-03T04:32:40;101670.19;;;9.50;100.00
3142;BME280;1581;51.568;6.998;2023-02-03T04:35:08;101684.56;;;9.39;100.00
3142;BME280;1581;51.568;6.998;2023-02-03T04:37:37;101688.34;;;9.54;100.00
3142;BME280;1581;51.568;6.998;2023-02-03T04:40:06;101679.59;;;9.70;100.00
3142;BME280;1581;51.568;6.998;2023-02-03T04:42:36;101673.47;;;9.44;100.00
3142;BME280;1581;51.568;6.998;2023-02-03T04:45:05;101676.00;;;9.53;100.00
3142;BME280;1581;51.568;6.998;2023-02-03T04:47:34;101668.03;;;9.53;100.00
3142;BME280;1581;51.568;6.998;2023-02-03T04:50:03;101661.34;;;9.49;100.00
3142;BME280;1581;51.568;6.998;2023-02-03T04:52:31;101656.69;;;9.43;100.00
3142;BME280;1581;51.568;6.998;2023-02-03T04:55:00;101639.72;;;9.44;100.00
3142;BME280;1581;51.568;6.998;2023-02-03T04:57:29;101640.25;;;9.56;100.00
3142;BME280;1581;51.568;6.998;2023-02-03T04:59:57;101644.88;;;9.46;100.00
3142;BME280;1581;51.568;6.998;2023-02-03T05:02:25;101636.78;;;9.55;100.00
3142;BME280;1581;51.568;6.998;2023-02-03T05:04:52;101647.09;;;9.58;100.00
3142;BME280;1581;51.568;6.998;2023-02-03T05:07:20;101648.72;;;9.51;100.00
3142;BME280;1581;51.568;6.998;2023-02-03T05:09:48;101644.19;;;9.44;100.00
3142;BME280;1581;51.568;6.998;2023-02-03T05:12:20;101648.88;;;9.42;100.00
3142;BME280;1581;51.568;6.998;2023-02-03T05:14:48;101650.22;;;9.54;100.00
3142;BME280;1581;51.568;6.998;2023-02-03T05:17:17;101647.88;;;9.43;100.00
3142;BME280;1581;51.568;6.998;2023-02-03T05:19:45;101643.22;;;9.45;100.00
3142;BME280;1581;51.568;6.998;2023-02-03T05:22:12;101651.53;;;9.42;100.00
3142;BME280;1581;51.568;6.998;2023-02-03T05:24:40;101651.34;;;9.43;100.00
3142;BME280;1581;51.568;6.998;2023-02-03T05:27:08;101640.69;;;9.36;100.00
3142;BME280;1581;51.568;6.998;2023-02-03T05:29:38;101646.50;;;9.31;100.00
3142;BME280;1581;51.568;6.998;2023-02-03T05:32:06;101635.91;;;9.47;100.00
3142;BME280;1581;51.568;6.998;2023-02-03T05:34:34;101632.28;;;9.56;100.00
3142;BME280;1581;51.568;6.998;2023-02-03T05:37:01;101623.41;;;9.39;100.00
3142;BME280;1581;51.568;6.998;2023-02-03T05:39:30;101630.59;;;9.47;100.00
3142;BME280;1581;51.568;6.998;2023-02-03T05:41:57;101639.72;;;9.44;100.00
3142;BME280;1581;51.568;6.998;2023-02-03T05:44:26;101634.50;;;9.35;100.00
3142;BME280;1581;51.568;6.998;2023-02-03T05:46:57;101645.34;;;9.41;100.00
3142;BME280;1581;51.568;6.998;2023-02-03T05:49:25;101644.75;;;9.47;100.00
3142;BME280;1581;51.568;6.998;2023-02-03T05:51:54;101641.72;;;9.42;100.00
3142;BME280;1581;51.568;6.998;2023-02-03T05:54:22;101634.72;;;9.41;100.00
3142;BME280;1581;51.568;6.998;2023-02-03T05:56:50;101635.28;;;9.53;100.00
3142;BME280;1581;51.568;6.998;2023-02-03T05:59:18;101647.19;;;9.41;100.00
3142;BME280;1581;51.568;6.998;2023-02-03T06:01:46;101639.44;;;9.55;100.00
3142;BME280;1581;51.568;6.998;2023-02-03T06:04:15;101639.25;;;9.49;100.00
3142;BME280;1581;51.568;6.998;2023-02-03T06:06:42;101649.25;;;9.55;100.00
3142;BME280;1581;51.568;6.998;2023-02-03T06:09:12;101655.25;;;9.57;100.00
3142;BME280;1581;51.568;6.998;2023-02-03T06:11:40;101661.03;;;9.52;100.00
3142;BME280;1581;51.568;6.998;2023-02-03T06:14:08;101652.81;;;9.38;100.00
3142;BME280;1581;51.568;6.998;2023-02-03T06:16:35;101638.13;;;9.59;100.00
3142;BME280;1581;51.568;6.998;2023-02-03T06:19:03;101647.72;;;9.44;100.00
3142;BME280;1581;51.568;6.998;2023-02-03T06:21:32;101647.53;;;9.46;100.00
3142;BME280;1581;51.568;6.998;2023-02-03T06:24:00;101654.94;;;9.60;100.00
3142;BME280;1581;51.568;6.998;2023-02-03T06:26:28;101641.63;;;9.60;100.00
3142;BME280;1581;51.568;6.998;2023-02-03T06:28:56;101652.81;;;9.38;100.00
3142;BME280;1581;51.568;6.998;2023-02-03T06:31:24;101643.66;;;9.33;100.00
3142;BME280;1581;51.568;6.998;2023-02-03T06:33:51;101650.88;;;9.48;100.00
3142;BME280;1581;51.568;6.998;2023-02-03T06:36:19;101652.34;;;9.42;100.00
3142;BME280;1581;51.568;6.998;2023-02-03T06:38:48;101642.19;;;9.38;100.00
3142;BME280;1581;51.568;6.998;2023-02-03T06:41:16;101650.41;;;9.52;100.00
3142;BME280;1581;51.568;6.998;2023-02-03T06:43:44;101653.72;;;9.46;100.00
3142;BME280;1581;51.568;6.998;2023-02-03T06:46:13;101648.41;;;9.54;100.00
3142;BME280;1581;51.568;6.998;2023-02-03T06:48:41;101640.66;;;9.28;100.00
3142;BME280;1581;51.568;6.998;2023-02-03T06:51:09;101651.31;;;9.36;100.00
3142;BME280;1581;51.568;6.998;2023-02-03T06:53:37;101653.13;;;9.35;100.00
3142;BME280;1581;51.568;6.998;2023-02-03T06:56:06;101657.34;;;9.38;100.00
3142;BME280;1581;51.568;6.998;2023-02-03T06:58:35;101659.28;;;9.69;100.00
3142;BME280;1581;51.568;6.998;2023-02-03T07:01:03;101659.31;;;9.36;100.00
3142;BME280;1581;51.568;6.998;2023-02-03T07:03:31;101646.81;;;9.36;100.00
3142;BME280;1581;51.568;6.998;2023-02-03T07:05:58;101658.25;;;9.29;100.00
3142;BME280;1581;51.568;6.998;2023-02-03T07:08:26;101651.81;;;9.31;100.00
3142;BME280;1581;51.568;6.998;2023-02-03T07:10:54;101660.84;;;9.46;100.00
3142;BME280;1581;51.568;6.998;2023-02-03T07:13:23;101656.22;;;9.56;100.00
3142;BME280;1581;51.568;6.998;2023-02-03T07:15:51;101662.31;;;9.40;100.00
3142;BME280;1581;51.568;6.998;2023-02-03T07:18:19;101670.22;;;9.58;100.00
3142;BME280;1581;51.568;6.998;2023-02-03T07:20:50;101663.88;;;9.51;100.00
3142;BME280;1581;51.568;6.998;2023-02-03T07:23:18;101664.00;;;9.49;100.00
3142;BME280;1581;51.568;6.998;2023-02-03T07:25:46;101675.97;;;9.45;100.00
3142;BME280;1581;51.568;6.998;2023-02-03T07:28:14;101659.84;;;9.47;100.00
3142;BME280;1581;51.568;6.998;2023-02-03T07:30:43;101661.50;;;9.40;100.00
3142;BME280;1581;51.568;6.998;2023-02-03T07:33:11;101655.88;;;9.43;100.00
3142;BME280;1581;51.568;6.998;2023-02-03T07:35:39;101655.50;;;9.38;100.00
3142;BME280;1581;51.568;6.998;2023-02-03T07:38:07;101677.94;;;9.36;100.00
3142;BME280;1581;51.568;6.998;2023-02-03T07:40:34;101674.56;;;9.59;100.00
3142;BME280;1581;51.568;6.998;2023-02-03T07:43:02;101681.75;;;9.66;100.00
3142;BME280;1581;51.568;6.998;2023-02-03T07:45:29;101678.44;;;9.72;100.00
3142;BME280;1581;51.568;6.998;2023-02-03T07:47:59;101674.19;;;9.54;100.00
3142;BME280;1581;51.568;6.998;2023-02-03T07:50:26;101682.25;;;9.70;100.00
3142;BME280;1581;51.568;6.998;2023-02-03T07:52:54;101669.97;;;9.77;100.00
3142;BME280;1581;51.568;6.998;2023-02-03T07:55:22;101668.84;;;9.54;100.00
3142;BME280;1581;51.568;6.998;2023-02-03T07:57:50;101659.22;;;9.53;100.00
3142;BME280;1581;51.568;6.998;2023-02-03T08:00:20;101660.72;;;9.55;100.00
3142;BME280;1581;51.568;6.998;2023-02-03T08:02:48;101672.94;;;9.40;100.00
3142;BME280;1581;51.568;6.998;2023-02-03T08:05:18;101677.06;;;9.68;100.00
3142;BME280;1581;51.568;6.998;2023-02-03T08:07:48;101675.22;;;9.61;100.00
3142;BME280;1581;51.568;6.998;2023-02-03T08:10:16;101672.88;;;9.58;100.00
3142;BME280;1581;51.568;6.998;2023-02-03T08:12:44;101690.84;;;9.64;100.00
3142;BME280;1581;51.568;6.998;2023-02-03T08:15:13;101698.31;;;9.60;100.00
3142;BME280;1581;51.568;6.998;2023-02-03T08:17:42;101677.31;;;9.83;100.00
3142;BME280;1581;51.568;6.998;2023-02-03T08:20:13;101689.06;;;9.72;100.00
3142;BME280;1581;51.568;6.998;2023-02-03T08:22:44;101691.63;;;9.82;100.00
3142;BME280;1581;51.568;6.998;2023-02-03T08:25:12;101686.28;;;9.82;100.00
3142;BME280;1581;51.568;6.998;2023-02-03T08:27:40;101699.03;;;10.04;100.00
3142;BME280;1581;51.568;6.998;2023-02-03T08:30:12;101695.88;;;10.08;100.00
3142;BME280;1581;51.568;6.998;2023-02-03T08:32:40;101700.59;;;9.81;100.00
3142;BME280;1581;51.568;6.998;2023-02-03T08:35:08;101681.50;;;9.93;100.00
3142;BME280;1581;51.568;6.998;2023-02-03T08:37:36;101683.97;;;9.87;100.00
3142;BME280;1581;51.568;6.998;2023-02-03T08:40:08;101671.66;;;9.86;100.00
3142;BME280;1581;51.568;6.998;2023-02-03T08:42:36;101691.41;;;10.17;100.00
3142;BME280;1581;51.568;6.998;2023-02-03T08:45:05;101689.75;;;10.24;100.00
3142;BME280;1581;51.568;6.998;2023-02-03T08:47:33;101688.25;;;10.13;100.00
3142;BME280;1581;51.568;6.998;2023-02-03T08:50:04;101687.06;;;10.16;100.00
3142;BME280;1581;51.568;6.998;2023-02-03T08:52:32;101699.25;;;10.18;100.00
3142;BME280;1581;51.568;6.998;2023-02-03T08:54:59;101686.94;;;10.25;100.00
3142;BME280;1581;51.568;6.998;2023-02-03T08:57:32;101691.78;;;10.22;100.00
3142;BME280;1581;51.568;6.998;2023-02-03T09:00:00;101684.13;;;10.34;100.00
3142;BME280;1581;51.568;6.998;2023-02-03T09:02:28;101699.09;;;10.27;100.00
3142;BME280;1581;51.568;6.998;2023-02-03T09:04:55;101691.44;;;10.25;100.00
3142;BME280;1581;51.568;6.998;2023-02-03T09:07:23;101695.75;;;10.33;100.00
3142;BME280;1581;51.568;6.998;2023-02-03T09:09:53;101708.94;;;10.35;100.00
3142;BME280;1581;51.568;6.998;2023-02-03T09:12:21;101694.13;;;10.48;100.00
3142;BME280;1581;51.568;6.998;2023-02-03T09:14:51;101707.44;;;10.32;100.00
3142;BME280;1581;51.568;6.998;2023-02-03T09:17:18;101708.78;;;10.36;100.00
3142;BME280;1581;51.568;6.998;2023-02-03T09:19:46;101711.44;;;10.44;100.00
3142;BME280;1581;51.568;6.998;2023-02-03T09:22:14;101717.09;;;10.33;100.00
3142;BME280;1581;51.568;6.998;2023-02-03T09:24:41;101708.91;;;10.19;100.00
3142;BME280;1581;51.568;6.998;2023-02-03T09:27:09;101713.09;;;10.37;100.00
3142;BME280;1581;51.568;6.998;2023-02-03T09:29:38;101709.75;;;10.35;100.00
3142;BME280;1581;51.568;6.998;2023-02-03T09:32:07;101723.13;;;10.51;100.00
3142;BME280;1581;51.568;6.998;2023-02-03T09:34:36;101720.66;;;10.58;100.00
3142;BME280;1581;51.568;6.998;2023-02-03T09:37:04;101715.09;;;10.43;100.00
3142;BME280;1581;51.568;6.998;2023-02-03T09:39:32;101713.13;;;10.53;100.00
3142;BME280;1581;51.568;6.998;2023-02-03T09:42:27;101718.44;;;10.45;100.00
3142;BME280;1581;51.568;6.998;2023-02-03T09:45:10;101708.81;;;10.60;100.00
3142;BME280;1581;51.568;6.998;2023-02-03T09:47:43;101709.31;;;10.56;100.00
3142;BME280;1581;51.568;6.998;2023-02-03T09:50:14;101721.47;;;10.50;100.00
3142;BME280;1581;51.568;6.998;2023-02-03T09:52:46;101717.13;;;10.65;100.00
3142;BME280;1581;51.568;6.998;2023-02-03T09:55:25;101704.47;;;10.59;100.00
3142;BME280;1581;51.568;6.998;2023-02-03T09:58:01;101693.50;;;10.78;100.00
3142;BME280;1581;51.568;6.998;2023-02-03T10:00:35;101703.13;;;10.63;100.00
3142;BME280;1581;51.568;6.998;2023-02-03T10:03:10;101705.16;;;10.69;100.00
3142;BME280;1581;51.568;6.998;2023-02-03T10:06:15;101715.81;;;10.77;100.00
3142;BME280;1581;51.568;6.998;2023-02-03T10:09:18;101715.50;;;10.72;100.00
3142;BME280;1581;51.568;6.998;2023-02-03T10:15:01;101724.63;;;10.70;100.00
3142;BME280;1581;51.568;6.998;2023-02-03T10:17:35;101724.13;;;10.50;100.00
3142;BME280;1581;51.568;6.998;2023-02-03T10:20:13;101719.16;;;10.71;100.00
3142;BME280;1581;51.568;6.998;2023-02-03T10:22:48;101719.97;;;10.72;100.00
3142;BME280;1581;51.568;6.998;2023-02-03T10:25:20;101731.97;;;10.60;100.00
3142;BME280;1581;51.568;6.998;2023-02-03T10:27:51;101741.41;;;10.38;100.00
3142;BME280;1581;51.568;6.998;2023-02-03T10:30:21;101735.63;;;10.59;100.00
3142;BME280;1581;51.568;6.998;2023-02-03T10:32:50;101740.25;;;10.41;100.00
3142;BME280;1581;51.568;6.998;2023-02-03T10:35:26;101740.63;;;10.54;100.00
3142;BME280;1581;51.568;6.998;2023-02-03T10:37:56;101743.16;;;10.71;100.00
3142;BME280;1581;51.568;6.998;2023-02-03T10:40:25;101744.47;;;10.75;100.00
3142;BME280;1581;51.568;6.998;2023-02-03T10:42:54;101738.44;;;10.49;100.00
3142;BME280;1581;51.568;6.998;2023-02-03T10:45:40;101729.31;;;10.76;100.00
3142;BME280;1581;51.568;6.998;2023-02-03T10:48:14;101726.16;;;10.80;100.00
3142;BME280;1581;51.568;6.998;2023-02-03T10:50:47;101725.31;;;10.56;100.00
3142;BME280;1581;51.568;6.998;2023-02-03T10:53:23;101724.81;;;10.76;100.00
3142;BME280;1581;51.568;6.998;2023-02-03T10:56:00;101729.47;;;10.66;100.00
3142;BME280;1581;51.568;6.998;2023-02-03T10:58:30;101725.97;;;10.66;100.00
3142;BME280;1581;51.568;6.998;2023-02-03T11:01:11;101737.81;;;10.71;100.00
3142;BME280;1581;51.568;6.998;2023-02-03T11:03:42;101737.66;;;10.73;100.00
3142;BME280;1581;51.568;6.998;2023-02-03T11:06:15;101724.31;;;10.73;100.00
3142;BME280;1581;51.568;6.998;2023-02-03T11:08:45;101740.81;;;10.76;100.00
3142;BME280;1581;51.568;6.998;2023-02-03T11:11:18;101734.84;;;10.82;100.00
3142;BME280;1581;51.568;6.998;2023-02-03T11:13:48;101737.31;;;10.92;100.00
3142;BME280;1581;51.568;6.998;2023-02-03T11:16:19;101749.81;;;10.99;100.00
3142;BME280;1581;51.568;6.998;2023-02-03T11:18:54;101744.81;;;11.04;100.00
3142;BME280;1581;51.568;6.998;2023-02-03T11:21:27;101733.66;;;11.16;100.00
3142;BME280;1581;51.568;6.998;2023-02-03T11:24:05;101743.47;;;11.08;100.00
3142;BME280;1581;51.568;6.998;2023-02-03T11:26:40;101762.31;;;10.91;100.00
3142;BME280;1581;51.568;6.998;2023-02-03T11:29:18;101763.16;;;10.91;100.00
3142;BME280;1581;51.568;6.998;2023-02-03T11:31:48;101763.16;;;10.99;100.00
3142;BME280;1581;51.568;6.998;2023-02-03T11:34:20;101759.50;;;11.08;100.00
3142;BME280;1581;51.568;6.998;2023-02-03T11:36:52;101765.16;;;11.05;100.00
3142;BME280;1581;51.568;6.998;2023-02-03T11:39:25;101753.50;;;10.90;100.00
3142;BME280;1581;51.568;6.998;2023-02-03T11:41:54;101761.16;;;11.01;100.00
3142;BME280;1581;51.568;6.998;2023-02-03T11:44:25;101762.66;;;11.04;100.00
3142;BME280;1581;51.568;6.998;2023-02-03T11:46:57;101744.81;;;10.96;100.00
3142;BME280;1581;51.568;6.998;2023-02-03T11:50:04;101748.66;;;10.94;100.00
3142;BME280;1581;51.568;6.998;2023-02-03T11:53:08;101758.16;;;10.96;100.00
3142;BME280;1581;51.568;6.998;2023-02-03T11:55:58;101742.16;;;10.96;100.00
3142;BME280;1581;51.568;6.998;2023-02-03T11:58:55;101752.47;;;10.83;100.00
3142;BME280;1581;51.568;6.998;2023-02-03T12:08:04;101758.81;;;11.06;100.00
3142;BME280;1581;51.568;6.998;2023-02-03T12:10:46;101759.81;;;10.97;100.00
3142;BME280;1581;51.568;6.998;2023-02-03T12:13:41;101758.81;;;11.22;100.00
3142;BME280;1581;51.568;6.998;2023-02-03T12:16:40;101761.97;;;11.10;100.00
3142;BME280;1581;51.568;6.998;2023-02-03T12:19:20;101769.31;;;11.00;100.00
3142;BME280;1581;51.568;6.998;2023-02-03T12:21:57;101763.34;;;11.06;100.00
3142;BME280;1581;51.568;6.998;2023-02-03T12:24:38;101783.84;;;11.21;100.00
3142;BME280;1581;51.568;6.998;2023-02-03T12:27:23;101779.66;;;10.95;100.00
3142;BME280;1581;51.568;6.998;2023-02-03T12:29:58;101795.50;;;11.04;100.00
3142;BME280;1581;51.568;6.998;2023-02-03T12:32:34;101770.50;;;11.21;100.00
3142;BME280;1581;51.568;6.998;2023-02-03T12:35:14;101764.81;;;11.00;100.00
3142;BME280;1581;51.568;6.998;2023-02-03T12:37:48;101762.66;;;11.35;100.00
3142;BME280;1581;51.568;6.998;2023-02-03T12:40:22;101762.81;;;11.42;100.00
3142;BME280;1581;51.568;6.998;2023-02-03T12:43:11;101757.63;;;11.56;100.00
3142;BME280;1581;51.568;6.998;2023-02-03T12:45:50;101774.63;;;11.39;100.00
3142;BME280;1581;51.568;6.998;2023-02-03T12:48:23;101776.81;;;11.60;100.00
3142;BME280;1581;51.568;6.998;2023-02-03T12:50:57;101775.16;;;11.59;100.00
3142;BME280;1581;51.568;6.998;2023-02-03T12:53:30;101773.56;;;11.80;100.00
3142;BME280;1581;51.568;6.998;2023-02-03T12:56:04;101775.13;;;11.67;100.00
3142;BME280;1581;51.568;6.998;2023-02-03T12:58:37;101766.75;;;11.78;100.00
3142;BME280;1581;51.568;6.998;2023-02-03T13:01:11;101768.31;;;11.32;100.00
3142;BME280;1581;51.568;6.998;2023-02-03T13:03:47;101777.81;;;11.35;100.00
3142;BME280;1581;51.568;6.998;2023-02-03T13:06:23;101773.31;;;11.35;100.00
3142;BME280;1581;51.568;6.998;2023-02-03T13:08:59;101766.81;;;11.30;100.00
3142;BME280;1581;51.568;6.998;2023-02-03T13:11:35;101770.47;;;11.29;100.00
3142;BME280;1581;51.568;6.998;2023-02-03T13:14:13;101767.63;;;11.46;100.00
3142;BME280;1581;51.568;6.998;2023-02-03T13:16:53;101762.97;;;11.56;100.00
3142;BME280;1581;51.568;6.998;2023-02-03T13:19:28;101772.13;;;11.62;100.00
3142;BME280;1581;51.568;6.998;2023-02-03T13:22:00;101778.28;;;11.38;100.00
3142;BME280;1581;51.568;6.998;2023-02-03T13:24:28;101763.97;;;11.47;100.00
3142;BME280;1581;51.568;6.998;2023-02-03T13:27:16;101757.78;;;11.23;100.00
3142;BME280;1581;51.568;6.998;2023-02-03T13:33:06;101758.31;;;11.18;100.00
3142;BME280;1581;51.568;6.998;2023-02-03T13:35:51;101740.59;;;11.41;100.00
3142;BME280;1581;51.568;6.998;2023-02-03T13:38:54;101740.47;;;11.27;100.00
3142;BME280;1581;51.568;6.998;2023-02-03T13:41:35;101759.31;;;11.25;100.00
3142;BME280;1581;51.568;6.998;2023-02-03T13:44:12;101764.16;;;11.14;100.00
3142;BME280;1581;51.568;6.998;2023-02-03T13:46:46;101771.31;;;11.29;100.00
3142;BME280;1581;51.568;6.998;2023-02-03T13:49:22;101789.31;;;11.19;100.00
3142;BME280;1581;51.568;6.998;2023-02-03T13:51:50;101811.47;;;10.88;100.00